createdAt,value
2023-02-09T00:01:46.230Z,99.90
2023-02-09T00:04:13.472Z,99.90
2023-02-09T00:06:40.478Z,99.90
2023-02-09T00:09:07.463Z,99.90
2023-02-09T00:11:52.938Z,99.90
2023-02-09T00:14:22.064Z,99.90
2023-02-09T00:16:51.258Z,99.90
2023-02-09T00:19:19.332Z,99.90
2023-02-09T00:21:47.522Z,99.90
2023-02-09T00:24:15.713Z,99.90
2023-02-09T00:26:43.523Z,99.90
2023-02-09T00:29:11.220Z,99.90
2023-02-09T00:31:38.664Z,99.90
2023-02-09T00:34:06.867Z,99.90
2023-02-09T00:36:34.163Z,99.90
2023-02-09T00:39:01.747Z,99.90
2023-02-09T00:41:47.594Z,99.90
2023-02-09T00:44:14.886Z,99.90
2023-02-09T00:46:42.275Z,99.90
2023-02-09T00:49:09.781Z,99.90
2023-02-09T00:51:36.837Z,99.90
2023-02-09T00:54:05.257Z,99.90
2023-02-09T00:56:32.676Z,99.90
2023-02-09T00:58:59.675Z,99.90
2023-02-09T01:01:26.895Z,99.90
2023-02-09T01:03:54.450Z,99.90
2023-02-09T01:06:21.874Z,99.90
2023-02-09T01:08:51.214Z,99.90
2023-02-09T01:11:19.152Z,99.90
2023-02-09T01:13:46.810Z,99.90
2023-02-09T01:16:17.718Z,99.90
2023-02-09T01:18:46.274Z,99.90
2023-02-09T01:21:15.394Z,99.90
2023-02-09T01:23:42.829Z,99.90
2023-02-09T01:26:12.527Z,99.90
2023-02-09T01:28:40.649Z,99.90
2023-02-09T01:31:26.081Z,99.90
2023-02-09T01:33:55.342Z,99.90
2023-02-09T01:36:22.756Z,99.90
2023-02-09T01:38:50.728Z,99.90
2023-02-09T01:41:18.637Z,99.90
2023-02-09T01:43:59.487Z,99.90
2023-02-09T01:46:32.290Z,99.90
2023-02-09T01:49:18.240Z,99.90
2023-02-09T01:51:56.938Z,99.90
2023-02-09T01:54:35.316Z,99.90
2023-02-09T01:57:10.537Z,99.90
2023-02-09T01:59:40.776Z,99.90
2023-02-09T02:02:48.467Z,99.90
2023-02-09T02:05:44.023Z,99.90
2023-02-09T02:08:38.922Z,99.90
2023-02-09T02:11:10.095Z,99.90
2023-02-09T02:13:37.621Z,99.90
2023-02-09T02:16:25.032Z,99.90
2023-02-09T02:19:15.993Z,99.90
2023-02-09T02:22:21.029Z,99.90
2023-02-09T02:25:12.696Z,99.90
2023-02-09T02:27:49.653Z,99.90
2023-02-09T02:30:48.075Z,99.90
2023-02-09T02:33:41.452Z,99.90
2023-02-09T02:37:06.971Z,99.90
2023-02-09T02:40:36.287Z,99.90
2023-02-09T02:43:35.301Z,99.90
2023-02-09T02:46:33.500Z,99.90
2023-02-09T02:49:31.824Z,99.90
2023-02-09T02:52:21.898Z,99.90
2023-02-09T02:55:06.856Z,99.90
2023-02-09T02:57:40.037Z,99.90
2023-02-09T03:00:30.835Z,99.90
2023-02-09T03:03:24.748Z,99.90
2023-02-09T03:06:15.479Z,99.90
2023-02-09T03:09:06.014Z,99.90
2023-02-09T03:11:40.793Z,99.90
2023-02-09T03:15:03.127Z,99.90
2023-02-09T03:18:36.666Z,99.90
2023-02-09T03:21:28.816Z,99.90
2023-02-09T03:24:20.234Z,99.90
2023-02-09T03:27:12.929Z,99.90
2023-02-09T03:29:48.672Z,99.90
2023-02-09T03:32:31.348Z,99.90
2023-02-09T03:35:27.976Z,99.90
2023-02-09T03:38:07.477Z,99.90
2023-02-09T03:40:43.625Z,99.90
2023-02-09T03:43:15.308Z,99.90
2023-02-09T03:45:45.691Z,99.90
2023-02-09T03:48:18.507Z,99.90
2023-02-09T03:51:11.700Z,99.90
2023-02-09T03:53:59.051Z,99.90
2023-02-09T03:56:46.859Z,99.90
2023-02-09T03:59:15.758Z,99.90
2023-02-09T04:02:15.722Z,99.90
2023-02-09T04:08:21.697Z,99.90
2023-02-09T04:11:00.165Z,99.90
2023-02-09T04:13:37.302Z,99.90
2023-02-09T04:16:04.872Z,99.90
2023-02-09T04:18:33.666Z,99.90
2023-02-09T04:21:09.516Z,99.90
2023-02-09T04:23:37.181Z,99.90
2023-02-09T04:26:26.876Z,99.90
2023-02-09T04:29:18.791Z,99.90
2023-02-09T04:31:57.795Z,99.90
2023-02-09T04:34:29.255Z,99.90
2023-02-09T04:37:07.936Z,99.90
2023-02-09T04:39:43.085Z,99.90
2023-02-09T04:42:21.180Z,99.90
2023-02-09T04:45:09.137Z,99.90
2023-02-09T04:47:38.492Z,99.90
2023-02-09T04:50:10.160Z,99.90
2023-02-09T04:55:37.257Z,99.90
2023-02-09T04:58:38.675Z,99.90
2023-02-09T05:01:18.411Z,99.90
2023-02-09T05:03:59.421Z,99.90
2023-02-09T05:06:49.551Z,99.90
2023-02-09T05:12:27.653Z,99.90
2023-02-09T05:15:09.538Z,99.90
2023-02-09T05:18:02.242Z,99.90
2023-02-09T05:20:39.674Z,99.90
2023-02-09T05:23:17.646Z,99.90
2023-02-09T05:25:53.031Z,99.90
2023-02-09T05:28:30.867Z,99.90
2023-02-09T05:31:07.162Z,99.90
2023-02-09T05:33:35.292Z,99.90
2023-02-09T05:36:14.628Z,99.90
2023-02-09T05:39:10.739Z,99.90
2023-02-09T05:42:18.889Z,99.90
2023-02-09T05:45:15.948Z,99.90
2023-02-09T05:47:43.557Z,99.90
2023-02-09T05:50:17.762Z,99.90
2023-02-09T05:56:31.541Z,99.90
2023-02-09T05:59:12.949Z,99.90
2023-02-09T06:02:09.721Z,99.90
2023-02-09T06:05:04.323Z,99.90
2023-02-09T06:07:35.349Z,99.90
2023-02-09T06:10:18.607Z,99.90
2023-02-09T06:12:54.790Z,99.90
2023-02-09T06:15:26.449Z,99.90
2023-02-09T06:18:05.795Z,99.90
2023-02-09T06:21:07.232Z,99.90
2023-02-09T06:23:35.813Z,99.90
2023-02-09T06:26:29.448Z,99.90
2023-02-09T06:29:27.421Z,99.90
2023-02-09T06:32:09.502Z,99.90
2023-02-09T06:34:59.328Z,99.90
2023-02-09T06:37:29.803Z,99.90
2023-02-09T06:40:11.269Z,99.90
2023-02-09T06:45:51.806Z,99.90
2023-02-09T06:48:33.112Z,99.90
2023-02-09T06:51:14.024Z,99.90
2023-02-09T06:53:45.149Z,99.90
2023-02-09T06:56:23.520Z,99.90
2023-02-09T06:59:09.435Z,99.90
2023-02-09T07:01:43.468Z,99.90
2023-02-09T07:06:57.261Z,99.90
2023-02-09T07:09:29.045Z,99.90
2023-02-09T07:12:06.831Z,99.90
2023-02-09T07:14:52.105Z,99.90
2023-02-09T07:17:23.503Z,99.90
2023-02-09T07:19:57.362Z,99.90
2023-02-09T07:22:31.150Z,99.90
2023-02-09T07:25:16.976Z,99.90
2023-02-09T07:27:53.819Z,99.90
2023-02-09T07:30:25.364Z,99.90
2023-02-09T07:33:00.914Z,99.90
2023-02-09T07:35:32.161Z,99.90
2023-02-09T07:38:00.002Z,99.90
2023-02-09T07:41:00.391Z,99.90
2023-02-09T07:43:31.946Z,99.90
2023-02-09T07:46:53.743Z,99.90
2023-02-09T07:49:20.956Z,99.90
2023-02-09T07:51:51.589Z,99.90
2023-02-09T07:54:18.893Z,99.90
2023-02-09T07:56:49.859Z,99.90
2023-02-09T07:59:17.105Z,99.90
2023-02-09T08:01:45.286Z,99.90
2023-02-09T08:04:14.267Z,99.90
2023-02-09T08:06:47.412Z,99.90
2023-02-09T08:09:19.684Z,99.90
2023-02-09T08:12:05.359Z,99.90
2023-02-09T08:14:45.566Z,99.90
2023-02-09T08:17:24.792Z,99.90
2023-02-09T08:20:18.795Z,99.90
2023-02-09T08:22:54.412Z,99.90
2023-02-09T08:25:32.430Z,99.90
2023-02-09T08:28:02.142Z,99.90
2023-02-09T08:30:30.108Z,99.90
2023-02-09T08:33:01.471Z,99.90
2023-02-09T08:35:30.942Z,99.90
2023-02-09T08:38:04.296Z,99.90
2023-02-09T08:40:36.040Z,99.90
2023-02-09T08:43:08.626Z,99.90
2023-02-09T08:45:38.834Z,99.90
2023-02-09T08:48:10.898Z,99.90
2023-02-09T08:50:42.567Z,99.90
2023-02-09T08:53:11.341Z,99.90
2023-02-09T08:55:42.353Z,99.90
2023-02-09T08:58:12.997Z,99.90
2023-02-09T09:00:48.225Z,99.90
2023-02-09T09:03:24.973Z,99.90
2023-02-09T09:06:00.387Z,99.90
2023-02-09T09:08:31.779Z,99.90
2023-02-09T09:11:02.833Z,99.90
2023-02-09T09:13:33.496Z,99.90
2023-02-09T09:16:05.063Z,99.90
2023-02-09T09:18:33.012Z,99.90
2023-02-09T09:21:02.652Z,99.90
2023-02-09T09:23:31.032Z,99.90
2023-02-09T09:26:04.159Z,99.90
2023-02-09T09:28:40.236Z,99.90
2023-02-09T09:31:16.243Z,99.90
2023-02-09T09:33:47.081Z,99.90
2023-02-09T09:36:18.463Z,99.90
2023-02-09T09:38:56.313Z,99.90
2023-02-09T09:41:30.393Z,99.90
2023-02-09T09:44:01.190Z,99.90
2023-02-09T09:46:52.593Z,99.90
2023-02-09T09:49:28.450Z,99.80
2023-02-09T09:52:20.207Z,97.30
2023-02-09T09:54:48.477Z,98.10
2023-02-09T09:57:32.358Z,99.40
2023-02-09T10:00:04.955Z,99.90
2023-02-09T10:02:36.928Z,99.90
2023-02-09T10:05:29.199Z,99.90
2023-02-09T10:08:03.226Z,99.90
2023-02-09T10:10:58.156Z,99.90
2023-02-09T10:13:49.568Z,99.90
2023-02-09T10:16:35.073Z,99.90
2023-02-09T10:19:07.331Z,99.90
2023-02-09T10:21:40.045Z,99.90
2023-02-09T10:24:41.324Z,99.90
2023-02-09T10:27:32.143Z,99.90
2023-02-09T10:30:20.437Z,99.90
2023-02-09T10:32:51.288Z,99.90
2023-02-09T10:35:35.844Z,99.90
2023-02-09T10:38:13.354Z,99.90
2023-02-09T10:40:41.993Z,99.90
2023-02-09T10:43:36.997Z,99.90
2023-02-09T10:46:15.998Z,99.90
2023-02-09T10:48:46.800Z,99.90
2023-02-09T10:51:31.095Z,99.90
2023-02-09T10:54:21.467Z,99.90
2023-02-09T10:56:50.476Z,99.90
2023-02-09T10:59:22.551Z,99.90
2023-02-09T11:02:05.536Z,99.90
2023-02-09T11:04:40.975Z,99.90
2023-02-09T11:07:24.817Z,99.90
2023-02-09T11:09:55.903Z,99.90
2023-02-09T11:12:37.304Z,99.90
2023-02-09T11:15:23.142Z,99.40
2023-02-09T11:18:07.303Z,99.90
2023-02-09T11:20:52.130Z,99.70
2023-02-09T11:24:16.297Z,98.90
2023-02-09T11:27:23.586Z,98.00
2023-02-09T11:30:20.321Z,97.40
2023-02-09T11:33:33.610Z,97.50
2023-02-09T11:36:32.889Z,96.80
2023-02-09T11:39:27.611Z,97.50
2023-02-09T11:42:37.456Z,97.40
2023-02-09T11:45:45.472Z,96.80
2023-02-09T11:48:28.626Z,97.30
2023-02-09T11:51:23.606Z,97.60
2023-02-09T11:54:33.857Z,98.30
2023-02-09T11:57:12.850Z,96.70
2023-02-09T11:59:57.791Z,96.00
2023-02-09T12:02:56.587Z,98.50
2023-02-09T12:05:24.907Z,96.90
2023-02-09T12:08:26.312Z,94.40
2023-02-09T12:11:33.036Z,95.10
2023-02-09T12:14:28.585Z,95.60
2023-02-09T12:17:21.817Z,96.30
2023-02-09T12:20:28.878Z,95.70
2023-02-09T12:23:21.912Z,95.10
2023-02-09T12:26:19.057Z,94.60
2023-02-09T12:29:23.689Z,96.10
2023-02-09T12:32:17.535Z,95.30
2023-02-09T12:34:51.346Z,93.70
2023-02-09T12:38:06.997Z,96.60
2023-02-09T12:40:38.480Z,94.80
2023-02-09T12:43:29.353Z,95.90
2023-02-09T12:46:36.131Z,94.80
2023-02-09T12:49:32.401Z,95.10
2023-02-09T12:52:17.566Z,94.60
2023-02-09T12:54:57.240Z,93.90
2023-02-09T12:57:34.620Z,92.10
2023-02-09T13:00:10.428Z,93.00
2023-02-09T13:02:51.181Z,93.60
2023-02-09T13:05:33.800Z,93.40
2023-02-09T13:08:14.548Z,94.00
2023-02-09T13:10:59.734Z,95.10
2023-02-09T13:14:04.503Z,95.50
2023-02-09T13:17:10.029Z,96.10
2023-02-09T13:20:16.233Z,97.60
2023-02-09T13:22:59.288Z,96.70
2023-02-09T13:25:33.877Z,99.90
2023-02-09T13:28:32.745Z,97.00
2023-02-09T13:31:01.457Z,97.10
2023-02-09T13:33:51.130Z,97.50
2023-02-09T13:36:47.960Z,97.90
2023-02-09T13:39:26.745Z,98.30
2023-02-09T13:42:06.634Z,99.90
2023-02-09T13:44:44.627Z,99.60
2023-02-09T13:47:20.304Z,98.70
2023-02-09T13:50:07.703Z,99.50
2023-02-09T13:52:39.384Z,98.10
2023-02-09T13:55:21.093Z,98.50
2023-02-09T13:58:35.662Z,99.90
2023-02-09T14:01:09.486Z,99.90
2023-02-09T14:03:56.769Z,99.90
2023-02-09T14:06:42.609Z,99.90
2023-02-09T14:09:23.031Z,99.90
2023-02-09T14:12:02.615Z,99.90
2023-02-09T14:15:02.623Z,99.90
2023-02-09T14:17:39.333Z,99.20
2023-02-09T14:20:25.855Z,99.90
2023-02-09T14:23:18.429Z,99.90
2023-02-09T14:25:48.789Z,99.90
2023-02-09T14:28:18.263Z,99.90
2023-02-09T14:30:51.048Z,99.90
2023-02-09T14:33:31.801Z,96.90
2023-02-09T14:36:02.064Z,97.00
2023-02-09T14:39:02.432Z,98.10
2023-02-09T14:41:40.153Z,98.80
2023-02-09T14:44:10.580Z,99.00
2023-02-09T14:46:56.870Z,99.70
2023-02-09T14:49:34.724Z,99.90
2023-02-09T14:52:06.618Z,99.90
2023-02-09T14:54:46.243Z,99.90
2023-02-09T14:57:14.984Z,99.90
2023-02-09T14:59:43.761Z,99.90
2023-02-09T15:02:25.230Z,99.90
2023-02-09T15:04:57.171Z,99.90
2023-02-09T15:07:37.496Z,99.90
2023-02-09T15:10:27.972Z,98.90
2023-02-09T15:12:57.192Z,99.90
2023-02-09T15:15:28.582Z,99.90
2023-02-09T15:18:00.215Z,99.90
2023-02-09T15:20:34.308Z,99.90
2023-02-09T15:23:05.253Z,99.90
2023-02-09T15:25:34.348Z,99.90
2023-02-09T15:28:03.494Z,99.90
2023-02-09T15:30:38.245Z,99.90
2023-02-09T15:33:09.673Z,99.90
2023-02-09T15:35:39.592Z,99.00
2023-02-09T15:38:10.189Z,98.80
2023-02-09T15:41:08.791Z,99.90
2023-02-09T15:44:02.951Z,99.90
2023-02-09T15:46:50.874Z,98.60
2023-02-09T15:49:19.307Z,97.60
2023-02-09T15:51:50.297Z,97.40
2023-02-09T15:54:22.520Z,96.30
2023-02-09T15:56:52.686Z,95.60
2023-02-09T15:59:25.040Z,95.40
2023-02-09T16:01:52.385Z,94.90
2023-02-09T16:04:21.782Z,94.70
2023-02-09T16:06:58.499Z,94.20
2023-02-09T16:09:35.248Z,94.90
2023-02-09T16:12:03.558Z,94.50
2023-02-09T16:14:32.302Z,94.40
2023-02-09T16:17:06.746Z,94.70
2023-02-09T16:19:35.346Z,94.70
2023-02-09T16:22:05.422Z,95.20
2023-02-09T16:24:44.096Z,95.90
2023-02-09T16:27:32.860Z,96.20
2023-02-09T16:29:59.894Z,96.40
2023-02-09T16:32:31.606Z,96.70
2023-02-09T16:35:14.493Z,95.70
2023-02-09T16:37:48.020Z,95.50
2023-02-09T16:40:33.679Z,96.40
2023-02-09T16:43:10.007Z,99.90
2023-02-09T16:45:44.690Z,98.80
2023-02-09T16:48:29.610Z,99.90
2023-02-09T16:50:57.910Z,99.90
2023-02-09T16:53:44.487Z,99.90
2023-02-09T16:56:13.597Z,99.90
2023-02-09T16:58:45.108Z,99.90
2023-02-09T17:01:22.128Z,99.90
2023-02-09T17:03:58.196Z,99.90
2023-02-09T17:06:33.496Z,99.90
2023-02-09T17:09:01.827Z,99.90
2023-02-09T17:11:31.696Z,99.90
2023-02-09T17:14:01.719Z,99.90
2023-02-09T17:16:36.133Z,99.90
2023-02-09T17:19:09.547Z,99.90
2023-02-09T17:21:40.672Z,99.60
2023-02-09T17:24:17.737Z,99.70
2023-02-09T17:26:49.407Z,99.60
2023-02-09T17:29:22.385Z,99.60
2023-02-09T17:31:53.819Z,99.70
2023-02-09T17:34:27.636Z,99.90
2023-02-09T17:36:57.366Z,99.90
2023-02-09T17:39:28.446Z,99.80
2023-02-09T17:41:57.827Z,99.80
2023-02-09T17:44:45.054Z,99.30
2023-02-09T17:47:20.243Z,99.50
2023-02-09T17:49:48.878Z,99.30
2023-02-09T17:52:21.145Z,99.30
2023-02-09T17:54:51.727Z,98.60
2023-02-09T17:57:20.914Z,99.90
2023-02-09T17:59:50.526Z,99.90
2023-02-09T18:02:22.590Z,99.90
2023-02-09T18:07:38.187Z,99.90
2023-02-09T18:10:14.006Z,99.90
2023-02-09T18:12:42.332Z,99.90
2023-02-09T18:15:38.514Z,99.90
2023-02-09T18:18:07.037Z,99.60
2023-02-09T18:20:34.911Z,99.90
2023-02-09T18:23:04.029Z,99.90
2023-02-09T18:25:37.766Z,99.90
2023-02-09T18:28:08.778Z,99.80
2023-02-09T18:30:39.815Z,99.90
2023-02-09T18:33:13.585Z,99.80
2023-02-09T18:35:47.844Z,99.10
2023-02-09T18:38:16.900Z,99.30
2023-02-09T18:40:47.222Z,99.60
2023-02-09T18:43:15.666Z,99.90
2023-02-09T18:45:45.683Z,99.90
2023-02-09T18:48:14.379Z,99.90
2023-02-09T18:50:51.702Z,99.90
2023-02-09T18:53:23.360Z,99.90
2023-02-09T18:56:03.358Z,99.90
2023-02-09T18:58:32.679Z,99.90
2023-02-09T19:01:02.347Z,99.90
2023-02-09T19:03:30.681Z,99.90
2023-02-09T19:05:58.046Z,99.90
2023-02-09T19:08:27.363Z,99.90
2023-02-09T19:10:55.640Z,99.90
2023-02-09T19:13:26.580Z,96.10
2023-02-09T19:15:56.707Z,96.30
2023-02-09T19:18:27.056Z,97.20
2023-02-09T19:20:56.926Z,97.70
2023-02-09T19:23:26.050Z,98.20
2023-02-09T19:26:06.177Z,98.80
2023-02-09T19:28:35.343Z,99.20
2023-02-09T19:31:04.418Z,99.70
2023-02-09T19:33:32.622Z,99.90
2023-02-09T19:36:03.062Z,99.90
2023-02-09T19:38:31.837Z,99.90
2023-02-09T19:41:10.435Z,99.90
2023-02-09T19:43:50.950Z,99.90
2023-02-09T19:46:19.044Z,99.90
2023-02-09T19:48:47.513Z,99.90
2023-02-09T19:51:15.445Z,99.90
2023-02-09T19:53:53.060Z,99.90
2023-02-09T19:56:24.213Z,99.90
2023-02-09T19:58:52.349Z,99.90
2023-02-09T20:01:21.470Z,99.90
2023-02-09T20:03:52.451Z,99.90
2023-02-09T20:06:30.983Z,99.90
2023-02-09T20:09:00.567Z,99.90
2023-02-09T20:11:29.472Z,99.90
2023-02-09T20:13:57.947Z,99.90
2023-02-09T20:16:35.613Z,99.90
2023-02-09T20:19:03.685Z,99.90
2023-02-09T20:21:35.990Z,99.90
2023-02-09T20:24:10.481Z,99.90
2023-02-09T20:26:41.006Z,99.90
2023-02-09T20:29:10.886Z,99.90
2023-02-09T20:31:41.623Z,99.90
2023-02-09T20:34:17.011Z,99.90
2023-02-09T20:36:52.508Z,99.90
2023-02-09T20:39:27.230Z,99.90
2023-02-09T20:42:16.311Z,99.90
2023-02-09T20:45:06.885Z,99.90
2023-02-09T20:47:34.326Z,99.90
2023-02-09T20:50:11.024Z,99.90
2023-02-09T20:52:41.787Z,99.90
2023-02-09T20:55:11.162Z,99.90
2023-02-09T20:57:38.880Z,99.90
2023-02-09T21:00:12.834Z,99.90
2023-02-09T21:02:45.036Z,99.90
2023-02-09T21:07:59.430Z,99.90
2023-02-09T21:10:36.466Z,99.90
2023-02-09T21:13:09.456Z,99.90
2023-02-09T21:15:44.166Z,99.90
2023-02-09T21:18:13.584Z,99.90
2023-02-09T21:20:40.968Z,99.90
2023-02-09T21:23:12.505Z,99.90
2023-02-09T21:25:41.363Z,99.90
2023-02-09T21:28:11.385Z,99.90
2023-02-09T21:30:44.307Z,99.90
2023-02-09T21:33:11.800Z,99.90
2023-02-09T21:35:44.228Z,99.90
2023-02-09T21:38:13.524Z,99.90
2023-02-09T21:40:51.991Z,99.90
2023-02-09T21:43:22.666Z,99.90
2023-02-09T21:46:00.008Z,99.90
2023-02-09T21:48:30.382Z,99.90
2023-02-09T21:50:59.208Z,99.90
2023-02-09T21:53:27.215Z,99.90
2023-02-09T21:55:55.678Z,99.90
2023-02-09T21:58:33.741Z,99.90
2023-02-09T22:01:03.859Z,99.90
2023-02-09T22:03:40.419Z,99.90
2023-02-09T22:06:10.585Z,99.90
2023-02-09T22:08:39.178Z,99.90
2023-02-09T22:11:07.138Z,99.90
2023-02-09T22:13:35.664Z,99.90
2023-02-09T22:16:11.548Z,99.90
2023-02-09T22:18:38.592Z,99.90
2023-02-09T22:21:11.674Z,99.90
2023-02-09T22:23:40.601Z,99.90
2023-02-09T22:26:14.095Z,99.90
2023-02-09T22:28:44.436Z,99.90
2023-02-09T22:31:15.124Z,99.90
2023-02-09T22:33:45.180Z,99.90
2023-02-09T22:36:26.744Z,99.90
2023-02-09T22:39:03.363Z,99.90
2023-02-09T22:41:41.809Z,99.90
2023-02-09T22:44:15.209Z,99.90
2023-02-09T22:46:49.505Z,99.90
2023-02-09T22:49:23.284Z,99.90
2023-02-09T22:51:53.730Z,99.90
2023-02-09T22:54:24.041Z,99.90
2023-02-09T22:56:53.987Z,99.90
2023-02-09T22:59:25.704Z,99.90
2023-02-09T23:01:54.165Z,99.90
2023-02-09T23:04:22.887Z,99.90
2023-02-09T23:06:54.753Z,99.90
2023-02-09T23:09:25.544Z,99.90
2023-02-09T23:11:55.164Z,99.90
2023-02-09T23:14:22.473Z,99.90
2023-02-09T23:16:50.968Z,99.90
2023-02-09T23:19:23.522Z,99.90
2023-02-09T23:21:52.792Z,99.90
2023-02-09T23:24:22.567Z,99.90
2023-02-09T23:26:51.489Z,99.90
2023-02-09T23:29:20.364Z,99.90
2023-02-09T23:31:51.122Z,99.90
2023-02-09T23:34:24.552Z,99.90
2023-02-09T23:36:53.207Z,99.90
2023-02-09T23:39:24.029Z,99.90
2023-02-09T23:41:52.339Z,99.90
2023-02-09T23:44:21.308Z,99.90
2023-02-09T23:46:50.689Z,99.90
2023-02-09T23:49:18.991Z,99.90
2023-02-09T23:51:46.922Z,99.90
2023-02-09T23:54:49.341Z,99.90
2023-02-09T23:57:21.196Z,99.90
2023-02-09T23:59:52.155Z,99.90
